»·PEaware :: N352QN KSAN-KAPV

N352QN :: KSAN-KAPV

FLIGHT INFORMATION

Flight Status: Arrived
Operator: Privately registered:
United States
More flights under this callsign
Pilot: Jacob H. (10561)
Aircraft: Unknown
(EPIC)
More flights by this aircraft type
Origin: KSAN San Diego Intl-Lindbergh
United States
Destination: KAPV Apple Valley
United States
More flights between these airports :: More routes between these airports
Route: +SLI POM V394 APLES
File this flight plan on PilotEdge
Remarks:
Altitude:
(Current/Filed)
13,000ft
Speed:
(Current/Filed)
310kts
Departed: 06-Oct-17 02:43 PM
Arrived: 06-Oct-17 03:07 PM
Distance/Time
Traveled:
111nm/0:24
Distance/Time
To Go:
Arrived

Flight Plot

Page will automatically refresh every two minutes.

Flight plan parsing failed; only flown route is shown


Map Options




Map Legend


Flown Route
Filed Route
Departure Airport
Arrival Airport
Navaid (VOR, NDB)
Fix

Horizontal Profiles

Position Reports

Time Latitude Longitude Heading Altitude Ground
Speed
06-Oct-17 14:28 33.671899 -117.867016 205 60ft 0kts
06-Oct-17 14:29 33.671899 -117.867016 205 60ft 0kts
06-Oct-17 14:30 33.671899 -117.867016 205 60ft 0kts
06-Oct-17 14:31 33.671899 -117.867016 205 60ft 0kts
06-Oct-17 14:32 33.671899 -117.867016 205 60ft 0kts
06-Oct-17 14:33 33.671899 -117.867016 205 60ft 0kts
06-Oct-17 14:34 33.671899 -117.867016 205 60ft 0kts
06-Oct-17 14:35 33.671899 -117.867016 205 60ft 0kts
06-Oct-17 14:36 33.671899 -117.867016 205 60ft 0kts
06-Oct-17 14:37 33.671899 -117.867016 205 60ft 0kts
06-Oct-17 14:38 33.671899 -117.867016 205 60ft 0kts
06-Oct-17 14:39 33.671899 -117.867016 205 60ft 0kts
06-Oct-17 14:40 33.671899 -117.867016 205 60ft 0kts
06-Oct-17 14:41 33.671899 -117.867016 205 60ft 0kts
06-Oct-17 14:42 33.671690 -117.867461 297 60ft 0kts
06-Oct-17 14:43 33.671690 -117.867461 297 60ft 0kts
06-Oct-17 14:44 33.671870 -117.867734 307 60ft 7kts
06-Oct-17 14:45 33.676483 -117.865570 26 60ft 31kts
06-Oct-17 14:46 33.679960 -117.863626 300 60ft 0kts
06-Oct-17 14:47 33.664738 -117.871768 184 897ft 149kts
06-Oct-17 14:48 33.624584 -117.875064 182 4854ft 151kts
06-Oct-17 14:49 33.590904 -117.906481 269 7531ft 192kts
06-Oct-17 14:50 33.586830 -117.980375 260 8040ft 243kts
06-Oct-17 14:51 33.609545 -118.048814 335 9136ft 255kts
06-Oct-17 14:52 33.665651 -118.053108 358 10637ft 269kts
06-Oct-17 14:53 33.739806 -118.054172 358 12498ft 273kts
06-Oct-17 14:54 33.810291 -118.027379 31 13908ft 284kts
06-Oct-17 14:55 33.885985 -117.961597 34 15003ft 298kts
06-Oct-17 14:56 33.942757 -117.910366 34 15031ft 314kts
06-Oct-17 14:57 34.013267 -117.846340 35 15032ft 326kts
06-Oct-17 14:58 34.084601 -117.776999 44 15009ft 335kts
06-Oct-17 14:59 34.145993 -117.695876 46 14978ft 337kts
06-Oct-17 15:00 34.218824 -117.597749 46 14963ft 337kts
06-Oct-17 15:01 34.267313 -117.532204 46 15049ft 334kts
06-Oct-17 15:02 34.329028 -117.448478 46 15164ft 334kts
06-Oct-17 15:03 34.390733 -117.364632 46 15167ft 336kts
06-Oct-17 15:04 34.447559 -117.287263 46 13942ft 319kts
06-Oct-17 15:05 34.505936 -117.207620 47 12421ft 306kts
06-Oct-17 15:06 34.556761 -117.132264 47 10329ft 283kts
06-Oct-17 15:07 34.620976 -117.102175 335 8496ft 236kts
06-Oct-17 15:08 34.660469 -117.162143 259 5353ft 244kts
06-Oct-17 15:09 34.617311 -117.179443 162 4312ft 138kts
06-Oct-17 15:10 34.585414 -117.183287 194 3075ft 108kts
06-Oct-17 15:11 34.573181 -117.188293 284 3066ft 18kts
06-Oct-17 15:12 34.573537 -117.190645 181 3066ft 0kts
06-Oct-17 15:13 34.573537 -117.190645 181 3066ft 0kts
06-Oct-17 15:14 34.573537 -117.190645 181 3066ft 0kts
06-Oct-17 15:15 34.573537 -117.190645 181 3066ft 0kts
06-Oct-17 15:16 34.573537 -117.190645 181 3066ft 0kts
06-Oct-17 15:17 34.573537 -117.190645 180 3066ft 0kts
06-Oct-17 15:18 34.574959 -117.188336 15 3066ft 21kts
06-Oct-17 15:19 34.579296 -117.187100 349 3066ft 0kts
06-Oct-17 15:20 34.579296 -117.187100 349 3066ft 0kts
06-Oct-17 15:21 34.579296 -117.187100 349 3066ft 0kts
06-Oct-17 15:22 34.579296 -117.187100 349 3066ft 0kts
06-Oct-17 15:23 34.579296 -117.187100 349 3066ft 0kts
06-Oct-17 15:24 34.579296 -117.187100 349 3066ft 0kts
06-Oct-17 15:25 34.579296 -117.187100 349 3066ft 0kts

Navigation Log

Ident Type
Flight plan parsing failed, navigation log unavailable